createdAt,value
2023-02-18T00:00:57.976Z,10.60
2023-02-18T00:03:29.198Z,10.60
2023-02-18T00:06:04.009Z,10.60
2023-02-18T00:08:31.039Z,10.60
2023-02-18T00:10:57.914Z,10.60
2023-02-18T00:13:24.714Z,10.60
2023-02-18T00:15:51.634Z,10.60
2023-02-18T00:18:18.449Z,10.60
2023-02-18T00:20:45.318Z,10.60
2023-02-18T00:23:12.161Z,10.60
2023-02-18T00:25:39.077Z,10.60
2023-02-18T00:28:05.899Z,10.50
2023-02-18T00:30:32.844Z,10.60
2023-02-18T00:32:59.739Z,10.70
2023-02-18T00:35:26.744Z,10.60
2023-02-18T00:37:53.809Z,10.70
2023-02-18T00:40:20.996Z,10.70
2023-02-18T00:42:48.075Z,10.60
2023-02-18T00:45:16.477Z,10.60
2023-02-18T00:47:43.403Z,10.60
2023-02-18T00:50:11.232Z,10.60
2023-02-18T00:52:38.106Z,10.60
2023-02-18T00:55:05.456Z,10.60
2023-02-18T00:57:33.257Z,10.70
2023-02-18T01:00:00.188Z,10.70
2023-02-18T01:02:26.982Z,10.80
2023-02-18T01:04:54.044Z,10.80
2023-02-18T01:07:21.094Z,10.70
2023-02-18T01:09:48.065Z,10.60
2023-02-18T01:12:15.103Z,10.70
2023-02-18T01:14:42.833Z,10.60
2023-02-18T01:17:09.964Z,10.70
2023-02-18T01:19:36.835Z,10.70
2023-02-18T01:22:03.772Z,10.70
2023-02-18T01:24:30.653Z,10.80
2023-02-18T01:26:57.488Z,10.80
2023-02-18T01:29:24.487Z,10.80
2023-02-18T01:31:51.857Z,10.90
2023-02-18T01:34:19.588Z,10.80
2023-02-18T01:36:46.510Z,10.90
2023-02-18T01:39:13.466Z,10.80
2023-02-18T01:41:40.286Z,10.80
2023-02-18T01:44:18.175Z,10.70
2023-02-18T01:46:46.153Z,10.70
2023-02-18T01:49:35.681Z,10.70
2023-02-18T01:52:08.110Z,10.70
2023-02-18T01:54:59.093Z,10.60
2023-02-18T01:57:33.351Z,10.60
2023-02-18T02:00:32.821Z,10.60
2023-02-18T02:02:59.949Z,10.60
2023-02-18T02:05:31.910Z,10.60
2023-02-18T02:08:00.257Z,10.60
2023-02-18T02:10:47.075Z,10.70
2023-02-18T02:13:40.460Z,10.70
2023-02-18T02:19:21.648Z,10.70
2023-02-18T02:21:57.516Z,10.70
2023-02-18T02:24:35.221Z,10.70
2023-02-18T02:27:02.017Z,10.70
2023-02-18T02:29:49.924Z,10.60
2023-02-18T02:32:55.105Z,10.60
2023-02-18T02:36:07.486Z,10.60
2023-02-18T02:38:48.701Z,10.60
2023-02-18T02:41:42.095Z,10.70
2023-02-18T02:44:51.735Z,10.60
2023-02-18T02:47:34.739Z,10.60
2023-02-18T02:50:17.365Z,10.60
2023-02-18T02:52:50.516Z,10.60
2023-02-18T02:55:20.030Z,10.60
2023-02-18T02:57:52.442Z,10.60
2023-02-18T03:00:46.433Z,10.60
2023-02-18T03:03:22.624Z,10.60
2023-02-18T03:06:03.145Z,10.60
2023-02-18T03:08:39.009Z,10.60
2023-02-18T03:11:10.244Z,10.60
2023-02-18T03:13:50.127Z,10.70
2023-02-18T03:16:42.452Z,10.70
2023-02-18T03:19:34.496Z,10.70
2023-02-18T03:22:12.388Z,10.60
2023-02-18T03:24:46.651Z,10.60
2023-02-18T03:27:37.716Z,10.60
2023-02-18T03:30:19.171Z,10.60
2023-02-18T03:32:50.605Z,10.60
2023-02-18T03:35:19.202Z,10.60
2023-02-18T03:38:12.398Z,10.70
2023-02-18T03:40:39.475Z,10.60
2023-02-18T03:43:06.755Z,10.60
2023-02-18T03:45:33.919Z,10.70
2023-02-18T03:48:00.911Z,10.70
2023-02-18T03:50:27.827Z,10.80
2023-02-18T03:52:54.721Z,10.80
2023-02-18T03:55:21.669Z,10.70
2023-02-18T03:57:48.544Z,10.70
2023-02-18T04:00:15.735Z,10.70
2023-02-18T04:02:42.877Z,10.70
2023-02-18T04:05:10.069Z,10.70
2023-02-18T04:07:37.093Z,10.70
2023-02-18T04:10:05.406Z,10.70
2023-02-18T04:12:32.486Z,10.60
2023-02-18T04:14:59.719Z,10.60
2023-02-18T04:17:26.862Z,10.60
2023-02-18T04:19:53.782Z,10.60
2023-02-18T04:22:20.792Z,10.60
2023-02-18T04:24:47.673Z,10.70
2023-02-18T04:27:14.486Z,10.80
2023-02-18T04:29:41.644Z,10.80
2023-02-18T04:32:08.692Z,10.80
2023-02-18T04:34:35.720Z,10.80
2023-02-18T04:37:02.588Z,10.70
2023-02-18T04:39:29.433Z,10.70
2023-02-18T04:41:56.407Z,10.80
2023-02-18T04:44:23.380Z,10.80
2023-02-18T04:46:50.336Z,10.80
2023-02-18T04:49:17.132Z,10.80
2023-02-18T04:51:44.013Z,10.90
2023-02-18T04:54:11.039Z,10.80
2023-02-18T04:56:38.067Z,10.90
2023-02-18T04:59:05.007Z,10.90
2023-02-18T05:01:33.370Z,10.90
2023-02-18T05:04:00.289Z,10.90
2023-02-18T05:06:27.236Z,10.90
2023-02-18T05:08:54.118Z,10.90
2023-02-18T05:11:20.999Z,10.90
2023-02-18T05:13:47.777Z,11.00
2023-02-18T05:16:14.785Z,11.00
2023-02-18T05:18:41.610Z,10.90
2023-02-18T05:21:08.713Z,10.90
2023-02-18T05:23:35.719Z,10.90
2023-02-18T05:26:02.530Z,10.90
2023-02-18T05:28:29.514Z,10.90
2023-02-18T05:30:56.426Z,10.90
2023-02-18T05:33:23.353Z,10.90
2023-02-18T05:35:50.184Z,10.90
2023-02-18T05:38:17.243Z,10.90
2023-02-18T05:40:44.187Z,11.00
2023-02-18T05:43:11.074Z,11.00
2023-02-18T05:45:38.071Z,10.90
2023-02-18T05:48:05.083Z,11.00
2023-02-18T05:50:32.500Z,10.90
2023-02-18T05:52:59.384Z,10.90
2023-02-18T05:55:26.378Z,11.00
2023-02-18T05:57:53.459Z,10.90
2023-02-18T06:00:21.012Z,10.90
2023-02-18T06:02:48.317Z,10.90
2023-02-18T06:05:15.336Z,10.90
2023-02-18T06:07:42.246Z,10.90
2023-02-18T06:10:09.786Z,10.90
2023-02-18T06:12:36.611Z,10.90
2023-02-18T06:15:03.679Z,10.90
2023-02-18T06:17:30.593Z,10.90
2023-02-18T06:19:57.506Z,10.90
2023-02-18T06:22:26.992Z,11.00
2023-02-18T06:24:53.897Z,10.90
2023-02-18T06:27:21.400Z,11.00
2023-02-18T06:29:48.402Z,11.00
2023-02-18T06:32:15.387Z,11.10
2023-02-18T06:34:42.404Z,11.00
2023-02-18T06:37:09.346Z,11.10
2023-02-18T06:39:36.193Z,11.10
2023-02-18T06:42:03.086Z,11.10
2023-02-18T06:44:30.129Z,11.10
2023-02-18T06:46:57.102Z,11.10
2023-02-18T06:49:23.927Z,11.10
2023-02-18T06:51:50.842Z,11.20
2023-02-18T06:54:17.721Z,11.20
2023-02-18T06:56:45.041Z,11.20
2023-02-18T06:59:11.891Z,11.30
2023-02-18T07:01:38.796Z,11.20
2023-02-18T07:04:05.891Z,11.20
2023-02-18T07:06:32.775Z,11.20
2023-02-18T07:08:59.666Z,11.20
2023-02-18T07:11:26.481Z,11.30
2023-02-18T07:13:53.403Z,11.30
2023-02-18T07:16:20.306Z,11.30
2023-02-18T07:18:47.193Z,11.30
2023-02-18T07:21:14.155Z,11.30
2023-02-18T07:23:41.150Z,11.40
2023-02-18T07:26:11.106Z,11.40
2023-02-18T07:28:38.970Z,11.40
2023-02-18T07:31:06.614Z,11.50
2023-02-18T07:33:33.775Z,11.50
2023-02-18T07:36:01.958Z,11.50
2023-02-18T07:38:29.399Z,11.60
2023-02-18T07:40:57.544Z,11.60
2023-02-18T07:43:24.749Z,11.60
2023-02-18T07:45:53.523Z,11.60
2023-02-18T07:48:20.439Z,11.60
2023-02-18T07:50:47.399Z,11.70
2023-02-18T07:53:16.036Z,11.60
2023-02-18T07:55:49.201Z,11.70
2023-02-18T07:58:25.627Z,11.70
2023-02-18T08:00:54.212Z,11.80
2023-02-18T08:03:23.024Z,11.80
2023-02-18T08:05:50.868Z,11.80
2023-02-18T08:08:22.295Z,11.80
2023-02-18T08:10:50.245Z,11.80
2023-02-18T08:13:17.909Z,11.80
2023-02-18T08:15:45.628Z,11.90
2023-02-18T08:18:19.103Z,11.90
2023-02-18T08:20:49.765Z,11.90
2023-02-18T08:23:17.321Z,11.90
2023-02-18T08:25:50.260Z,11.90
2023-02-18T08:28:23.938Z,11.90
2023-02-18T08:30:53.582Z,11.90
2023-02-18T08:33:21.948Z,11.90
2023-02-18T08:35:51.224Z,11.90
2023-02-18T08:38:18.368Z,11.90
2023-02-18T08:40:47.283Z,11.80
2023-02-18T08:43:14.911Z,11.90
2023-02-18T08:45:44.161Z,11.90
2023-02-18T08:48:19.578Z,12.00
2023-02-18T08:50:48.590Z,12.00
2023-02-18T08:53:16.230Z,12.00
2023-02-18T08:55:43.169Z,12.00
2023-02-18T08:58:11.034Z,12.00
2023-02-18T09:00:46.311Z,12.10
2023-02-18T09:03:14.852Z,11.80
2023-02-18T09:05:42.437Z,12.10
2023-02-18T09:08:09.678Z,12.20
2023-02-18T09:10:36.765Z,12.20
2023-02-18T09:13:03.756Z,12.20
2023-02-18T09:15:32.294Z,12.20
2023-02-18T09:17:59.910Z,12.20
2023-02-18T09:20:27.368Z,12.20
2023-02-18T09:22:54.238Z,12.20
2023-02-18T09:25:21.262Z,12.20
2023-02-18T09:27:54.185Z,12.30
2023-02-18T09:30:21.247Z,12.30
2023-02-18T09:32:48.131Z,12.30
2023-02-18T09:35:17.832Z,12.30
2023-02-18T09:37:46.052Z,12.30
2023-02-18T09:40:27.079Z,12.40
2023-02-18T09:42:58.853Z,12.30
2023-02-18T09:45:26.122Z,12.30
2023-02-18T09:47:54.103Z,12.40
2023-02-18T09:50:24.342Z,12.50
2023-02-18T09:52:53.944Z,12.70
2023-02-18T09:55:55.836Z,12.90
2023-02-18T09:58:41.586Z,13.20
2023-02-18T10:01:20.941Z,13.40
2023-02-18T10:03:48.088Z,13.40
2023-02-18T10:06:33.908Z,13.40
2023-02-18T10:09:18.753Z,13.50
2023-02-18T10:11:53.404Z,13.40
2023-02-18T10:14:20.564Z,13.40
2023-02-18T10:16:50.853Z,13.40
2023-02-18T10:19:22.734Z,13.30
2023-02-18T10:21:51.495Z,13.30
2023-02-18T10:24:34.889Z,13.30
2023-02-18T10:27:06.177Z,13.20
2023-02-18T10:29:36.713Z,13.20
2023-02-18T10:32:23.906Z,13.20
2023-02-18T10:35:17.602Z,13.10
2023-02-18T10:38:27.929Z,13.00
2023-02-18T10:40:59.836Z,12.90
2023-02-18T10:43:46.526Z,12.90
2023-02-18T10:46:48.703Z,12.90
2023-02-18T10:50:01.216Z,12.80
2023-02-18T10:52:33.669Z,12.80
2023-02-18T10:55:09.531Z,12.70
2023-02-18T10:57:48.006Z,12.60
2023-02-18T11:00:14.970Z,12.70
2023-02-18T11:02:42.345Z,12.60
2023-02-18T11:05:27.378Z,12.70
2023-02-18T11:07:59.286Z,12.70
2023-02-18T11:10:30.448Z,12.70
2023-02-18T11:13:08.921Z,12.80
2023-02-18T11:15:38.829Z,12.80
2023-02-18T11:18:28.141Z,12.80
2023-02-18T11:21:01.252Z,12.80
2023-02-18T11:23:28.155Z,12.80
2023-02-18T11:26:01.208Z,12.80
2023-02-18T11:28:42.079Z,12.90
2023-02-18T11:31:11.630Z,12.90
2023-02-18T11:33:45.939Z,12.90
2023-02-18T11:36:27.789Z,12.80
2023-02-18T11:38:59.614Z,12.80
2023-02-18T11:41:34.137Z,12.70
2023-02-18T11:44:02.864Z,12.80
2023-02-18T11:46:29.809Z,12.80
2023-02-18T11:49:10.737Z,12.80
2023-02-18T11:51:40.341Z,12.90
2023-02-18T11:54:22.802Z,13.00
2023-02-18T11:57:12.359Z,13.00
2023-02-18T11:59:41.020Z,13.00
2023-02-18T12:02:10.825Z,13.10
2023-02-18T12:04:46.441Z,13.10
2023-02-18T12:07:22.406Z,13.10
2023-02-18T12:09:58.088Z,13.20
2023-02-18T12:12:32.288Z,13.30
2023-02-18T12:15:00.262Z,13.30
2023-02-18T12:17:54.605Z,13.30
2023-02-18T12:20:53.664Z,13.30
2023-02-18T12:23:20.389Z,13.30
2023-02-18T12:26:01.633Z,13.30
2023-02-18T12:28:35.886Z,13.40
2023-02-18T12:31:12.297Z,13.30
2023-02-18T12:33:50.503Z,13.40
2023-02-18T12:36:52.869Z,13.40
2023-02-18T12:39:41.530Z,13.50
2023-02-18T12:42:34.198Z,13.40
2023-02-18T12:45:18.764Z,13.40
2023-02-18T12:47:57.985Z,13.40
2023-02-18T12:50:52.122Z,13.40
2023-02-18T12:53:46.362Z,13.30
2023-02-18T12:56:15.882Z,13.40
2023-02-18T12:59:04.150Z,13.30
2023-02-18T13:01:48.378Z,13.30
2023-02-18T13:04:27.255Z,13.30
2023-02-18T13:06:56.877Z,13.20
2023-02-18T13:09:40.957Z,13.20
2023-02-18T13:12:07.724Z,13.20
2023-02-18T13:14:45.475Z,13.20
2023-02-18T13:17:14.595Z,13.20
2023-02-18T13:19:50.265Z,13.30
2023-02-18T13:22:20.447Z,13.20
2023-02-18T13:24:49.787Z,13.10
2023-02-18T13:27:43.640Z,13.10
2023-02-18T13:30:46.210Z,13.10
2023-02-18T13:33:33.324Z,13.20
2023-02-18T13:36:21.407Z,13.20
2023-02-18T13:38:58.095Z,13.30
2023-02-18T13:41:27.272Z,13.30
2023-02-18T13:43:54.374Z,13.30
2023-02-18T13:46:22.976Z,13.30
2023-02-18T13:49:07.607Z,13.40
2023-02-18T13:51:48.361Z,13.50
2023-02-18T13:54:18.608Z,13.60
2023-02-18T13:57:16.866Z,13.60
2023-02-18T13:59:56.600Z,13.50
2023-02-18T14:02:24.780Z,13.50
2023-02-18T14:04:57.213Z,13.50
2023-02-18T14:07:36.194Z,13.50
2023-02-18T14:10:21.202Z,13.50
2023-02-18T14:12:56.862Z,13.50
2023-02-18T14:15:23.731Z,13.50
2023-02-18T14:18:21.431Z,13.30
2023-02-18T14:20:52.018Z,13.60
2023-02-18T14:23:18.914Z,13.50
2023-02-18T14:26:12.241Z,13.50
2023-02-18T14:28:48.076Z,13.60
2023-02-18T14:31:42.264Z,13.60
2023-02-18T14:34:21.849Z,13.50
2023-02-18T14:37:36.658Z,13.50
2023-02-18T14:40:21.910Z,13.60
2023-02-18T14:43:07.525Z,13.60
2023-02-18T14:46:05.402Z,13.60
2023-02-18T14:48:44.343Z,13.60
2023-02-18T14:51:16.991Z,13.60
2023-02-18T14:53:45.862Z,13.50
2023-02-18T14:56:16.020Z,13.60
2023-02-18T14:58:46.770Z,13.60
2023-02-18T15:01:23.728Z,13.60
2023-02-18T15:03:52.794Z,13.60
2023-02-18T15:06:35.903Z,13.60
2023-02-18T15:09:14.593Z,13.50
2023-02-18T15:11:46.541Z,13.60
2023-02-18T15:14:23.451Z,13.50
2023-02-18T15:16:50.925Z,13.50
2023-02-18T15:19:22.713Z,13.60
2023-02-18T15:21:51.425Z,13.60
2023-02-18T15:24:32.285Z,13.60
2023-02-18T15:27:14.774Z,13.50
2023-02-18T15:29:41.967Z,13.50
2023-02-18T15:32:24.815Z,13.40
2023-02-18T15:34:56.267Z,13.50
2023-02-18T15:37:23.706Z,13.50
2023-02-18T15:39:50.966Z,13.50
2023-02-18T15:42:17.740Z,13.50
2023-02-18T15:44:48.615Z,13.50
2023-02-18T15:47:17.486Z,13.50
2023-02-18T15:49:52.290Z,13.50
2023-02-18T15:52:27.729Z,13.50
2023-02-18T15:54:56.516Z,13.50
2023-02-18T15:57:28.143Z,13.50
2023-02-18T16:00:04.321Z,13.50
2023-02-18T16:02:32.647Z,13.50
2023-02-18T16:05:04.708Z,13.40
2023-02-18T16:07:38.229Z,13.30
2023-02-18T16:10:36.947Z,13.30
2023-02-18T16:13:06.121Z,13.30
2023-02-18T16:15:42.808Z,13.30
2023-02-18T16:18:37.138Z,13.30
2023-02-18T16:21:22.874Z,13.30
2023-02-18T16:23:58.137Z,13.20
2023-02-18T16:26:41.535Z,13.20
2023-02-18T16:29:14.195Z,13.20
2023-02-18T16:31:42.141Z,13.10
2023-02-18T16:34:09.218Z,13.00
2023-02-18T16:36:36.094Z,13.00
2023-02-18T16:39:03.424Z,13.00
2023-02-18T16:41:30.336Z,13.00
2023-02-18T16:43:57.459Z,13.00
2023-02-18T16:46:25.181Z,13.00
2023-02-18T16:48:56.363Z,13.00
2023-02-18T16:51:26.479Z,13.00
2023-02-18T16:53:53.387Z,13.00
2023-02-18T16:56:23.611Z,13.00
2023-02-18T16:58:51.015Z,13.00
2023-02-18T17:01:26.313Z,13.00
2023-02-18T17:03:53.759Z,13.10
2023-02-18T17:06:22.008Z,13.00
2023-02-18T17:08:49.546Z,13.00
2023-02-18T17:11:20.920Z,12.90
2023-02-18T17:13:49.251Z,12.90
2023-02-18T17:16:17.060Z,13.00
2023-02-18T17:18:44.692Z,12.90
2023-02-18T17:21:21.050Z,12.90
2023-02-18T17:23:49.187Z,13.00
2023-02-18T17:26:27.796Z,13.00
2023-02-18T17:28:56.911Z,13.20
2023-02-18T17:31:26.147Z,12.80
2023-02-18T17:34:00.380Z,12.70
2023-02-18T17:36:27.816Z,12.70
2023-02-18T17:38:54.728Z,12.70
2023-02-18T17:41:21.724Z,12.70
2023-02-18T17:43:48.573Z,12.70
2023-02-18T17:46:18.089Z,12.80
2023-02-18T17:48:46.978Z,12.80
2023-02-18T17:51:24.810Z,12.80
2023-02-18T17:53:52.036Z,12.90
2023-02-18T17:56:19.154Z,12.80
2023-02-18T17:58:46.701Z,12.70
2023-02-18T18:01:13.630Z,12.70
2023-02-18T18:03:40.565Z,12.70
2023-02-18T18:06:18.706Z,12.60
2023-02-18T18:08:46.408Z,12.70
2023-02-18T18:11:19.907Z,12.70
2023-02-18T18:13:47.271Z,12.60
2023-02-18T18:16:16.023Z,12.60
2023-02-18T18:18:45.373Z,12.50
2023-02-18T18:21:26.207Z,12.50
2023-02-18T18:23:53.073Z,12.50
2023-02-18T18:26:20.380Z,12.50
2023-02-18T18:28:47.802Z,12.50
2023-02-18T18:31:19.008Z,12.50
2023-02-18T18:33:48.761Z,12.60
2023-02-18T18:36:15.978Z,12.60
2023-02-18T18:38:42.938Z,12.60
2023-02-18T18:41:14.941Z,12.50
2023-02-18T18:43:41.847Z,12.60
2023-02-18T18:46:08.795Z,12.50
2023-02-18T18:48:35.873Z,12.50
2023-02-18T18:51:03.121Z,12.50
2023-02-18T18:53:32.689Z,12.60
2023-02-18T18:56:02.687Z,12.50
2023-02-18T18:58:29.588Z,12.50
2023-02-18T19:00:59.637Z,12.50
2023-02-18T19:03:28.318Z,12.50
2023-02-18T19:05:55.382Z,12.40
2023-02-18T19:08:22.363Z,12.40
2023-02-18T19:10:53.211Z,12.50
2023-02-18T19:13:25.756Z,12.40
2023-02-18T19:16:18.098Z,12.50
2023-02-18T19:18:45.866Z,12.40
2023-02-18T19:21:12.878Z,12.40
2023-02-18T19:23:39.888Z,12.40
2023-02-18T19:26:07.248Z,12.40
2023-02-18T19:28:34.592Z,12.40
2023-02-18T19:31:01.716Z,12.40
2023-02-18T19:33:28.730Z,12.40
2023-02-18T19:35:55.605Z,12.40
2023-02-18T19:38:22.504Z,12.40
2023-02-18T19:40:49.416Z,12.40
2023-02-18T19:43:16.566Z,12.30
2023-02-18T19:45:45.532Z,12.20
2023-02-18T19:48:14.240Z,12.20
2023-02-18T19:50:42.351Z,12.20
2023-02-18T19:53:10.138Z,12.20
2023-02-18T19:55:37.151Z,12.40
2023-02-18T19:58:04.184Z,12.20
2023-02-18T20:00:31.058Z,12.20
2023-02-18T20:02:58.355Z,12.20
2023-02-18T20:05:25.346Z,12.20
2023-02-18T20:07:52.238Z,12.20
2023-02-18T20:10:22.588Z,12.20
2023-02-18T20:12:53.878Z,12.20
2023-02-18T20:15:21.734Z,12.20
2023-02-18T20:17:48.820Z,12.20
2023-02-18T20:20:15.763Z,12.20
2023-02-18T20:22:42.597Z,12.20
2023-02-18T20:25:09.463Z,12.30
2023-02-18T20:27:38.374Z,12.30
2023-02-18T20:30:08.105Z,12.30
2023-02-18T20:32:35.765Z,12.40
2023-02-18T20:35:03.633Z,12.40
2023-02-18T20:37:31.286Z,12.30
2023-02-18T20:39:58.485Z,12.30
2023-02-18T20:42:25.359Z,12.30
2023-02-18T20:44:52.682Z,12.30
2023-02-18T20:47:19.598Z,12.30
2023-02-18T20:49:46.810Z,12.30
2023-02-18T20:52:13.950Z,12.10
2023-02-18T20:54:41.064Z,12.10
2023-02-18T20:57:09.005Z,12.10
2023-02-18T20:59:36.108Z,12.10
2023-02-18T21:02:03.066Z,12.10
2023-02-18T21:04:30.758Z,12.10
2023-02-18T21:06:57.707Z,12.10
2023-02-18T21:09:25.273Z,12.00
2023-02-18T21:11:52.150Z,11.90
2023-02-18T21:14:19.354Z,11.80
2023-02-18T21:16:49.934Z,11.80
2023-02-18T21:19:17.906Z,11.80
2023-02-18T21:21:45.387Z,11.60
2023-02-18T21:24:12.297Z,11.60
2023-02-18T21:26:39.658Z,11.60
2023-02-18T21:29:08.056Z,11.50
2023-02-18T21:31:40.540Z,11.50
2023-02-18T21:34:10.178Z,11.60
2023-02-18T21:36:37.053Z,11.60
2023-02-18T21:39:06.368Z,11.60
2023-02-18T21:41:35.523Z,11.60
2023-02-18T21:44:02.328Z,11.70
2023-02-18T21:46:33.735Z,11.70
2023-02-18T21:49:07.040Z,11.60
2023-02-18T21:51:57.420Z,11.60
2023-02-18T21:54:31.989Z,11.60
2023-02-18T21:57:00.559Z,11.50
2023-02-18T21:59:29.124Z,11.40
2023-02-18T22:01:57.271Z,11.30
2023-02-18T22:04:25.253Z,11.40
2023-02-18T22:06:52.561Z,11.40
2023-02-18T22:09:19.537Z,11.40
2023-02-18T22:11:46.651Z,11.30
2023-02-18T22:14:14.825Z,11.20
2023-02-18T22:16:42.414Z,11.30
2023-02-18T22:19:11.431Z,11.30
2023-02-18T22:21:38.564Z,11.30
2023-02-18T22:24:07.116Z,11.30
2023-02-18T22:26:34.178Z,11.30
2023-02-18T22:29:01.439Z,11.20
2023-02-18T22:31:30.591Z,11.30
2023-02-18T22:33:58.926Z,11.30
2023-02-18T22:36:27.776Z,11.30
2023-02-18T22:38:55.262Z,11.30
2023-02-18T22:41:24.032Z,11.30
2023-02-18T22:43:55.552Z,11.30
2023-02-18T22:46:22.658Z,11.30
2023-02-18T22:48:49.485Z,11.30
2023-02-18T22:51:24.982Z,11.30
2023-02-18T22:53:56.689Z,11.30
2023-02-18T22:56:25.527Z,11.40
2023-02-18T22:58:54.156Z,11.30
2023-02-18T23:01:33.099Z,11.30
2023-02-18T23:04:06.008Z,11.30
2023-02-18T23:06:33.600Z,11.40
2023-02-18T23:09:00.563Z,11.30
2023-02-18T23:11:27.635Z,11.30
2023-02-18T23:14:14.466Z,11.40
2023-02-18T23:17:00.220Z,11.30
2023-02-18T23:19:29.010Z,11.40
2023-02-18T23:21:55.893Z,11.40
2023-02-18T23:24:23.542Z,11.50
2023-02-18T23:26:50.626Z,11.50
2023-02-18T23:29:17.830Z,11.50
2023-02-18T23:31:44.757Z,11.50
2023-02-18T23:34:14.710Z,11.50
2023-02-18T23:36:42.837Z,11.50
2023-02-18T23:39:11.936Z,11.40
2023-02-18T23:41:38.855Z,11.40
2023-02-18T23:44:07.420Z,11.40
2023-02-18T23:46:34.840Z,11.50
2023-02-18T23:49:01.792Z,11.40
2023-02-18T23:51:29.792Z,11.50
2023-02-18T23:53:57.092Z,11.50
2023-02-18T23:56:26.239Z,11.50
2023-02-18T23:59:04.098Z,11.50
